CheckWX is a tool to help pilots better visualize weather data.  It is not intended as a substitute for an official pre-flight weather briefing.

04:17:52 UTC

LFPO TAF
Paris-Orly Airport
Paris, France
TAF LFPO 312300Z 0100/0206 08010KT CAVOK

Jun-1@
00:00 UTC

Jun-1 @ 00:00 UTC

Jun-2@
06:00 UTC

Jun-2 @ 06:00 UTC

TAF LFPO 312300Z 0100/0206 08010KT CAVOK
Wind
  • 080° at 10 KTS
Conditions
No significant weather
Cloud Levels
  • No significant clouds